sensor_id;sensor_type;location;lat;lon;timestamp;P1;P2;P0
70249;PMS5003;57644;48.416;-123.374;2022-07-29T00:01:33;10;9;
70249;PMS5003;57644;48.416;-123.374;2022-07-29T00:04:04;8;8;
70249;PMS5003;57644;48.416;-123.374;2022-07-29T00:06:34;10;9;
70249;PMS5003;57644;48.416;-123.374;2022-07-29T00:09:05;10;10;
70249;PMS5003;57644;48.416;-123.374;2022-07-29T00:11:35;7;7;
70249;PMS5003;57644;48.416;-123.374;2022-07-29T00:14:06;8;8;
70249;PMS5003;57644;48.416;-123.374;2022-07-29T00:16:36;8;8;
70249;PMS5003;57644;48.416;-123.374;2022-07-29T00:19:06;10;8;
70249;PMS5003;57644;48.416;-123.374;2022-07-29T00:21:44;8;8;
70249;PMS5003;57644;48.416;-123.374;2022-07-29T00:24:07;9;9;
70249;PMS5003;57644;48.416;-123.374;2022-07-29T00:26:37;6;6;
70249;PMS5003;57644;48.416;-123.374;2022-07-29T00:29:07;7;7;
70249;PMS5003;57644;48.416;-123.374;2022-07-29T00:31:37;7;6;
70249;PMS5003;57644;48.416;-123.374;2022-07-29T00:34:08;8;8;
70249;PMS5003;57644;48.416;-123.374;2022-07-29T00:36:38;7;7;
70249;PMS5003;57644;48.416;-123.374;2022-07-29T00:39:08;7;5;
70249;PMS5003;57644;48.416;-123.374;2022-07-29T00:41:39;6;5;
70249;PMS5003;57644;48.416;-123.374;2022-07-29T00:44:09;7;6;
70249;PMS5003;57644;48.416;-123.374;2022-07-29T00:46:39;7;7;
70249;PMS5003;57644;48.416;-123.374;2022-07-29T00:49:09;9;9;
70249;PMS5003;57644;48.416;-123.374;2022-07-29T00:51:40;22;20;
70249;PMS5003;57644;48.416;-123.374;2022-07-29T00:54:16;18;17;
70249;PMS5003;57644;48.416;-123.374;2022-07-29T00:56:42;9;9;
70249;PMS5003;57644;48.416;-123.374;2022-07-29T00:59:12;7;7;
70249;PMS5003;57644;48.416;-123.374;2022-07-29T01:01:42;9;8;
70249;PMS5003;57644;48.416;-123.374;2022-07-29T01:04:13;8;7;
70249;PMS5003;57644;48.416;-123.374;2022-07-29T01:06:44;12;9;
70249;PMS5003;57644;48.416;-123.374;2022-07-29T01:09:14;13;12;
70249;PMS5003;57644;48.416;-123.374;2022-07-29T01:11:45;15;15;
70249;PMS5003;57644;48.416;-123.374;2022-07-29T01:14:15;12;10;
70249;PMS5003;57644;48.416;-123.374;2022-07-29T01:16:49;8;8;
70249;PMS5003;57644;48.416;-123.374;2022-07-29T01:19:23;6;6;
70249;PMS5003;57644;48.416;-123.374;2022-07-29T01:21:50;7;7;
70249;PMS5003;57644;48.416;-123.374;2022-07-29T01:24:25;6;5;
70249;PMS5003;57644;48.416;-123.374;2022-07-29T01:26:49;7;7;
70249;PMS5003;57644;48.416;-123.374;2022-07-29T01:29:22;8;8;
70249;PMS5003;57644;48.416;-123.374;2022-07-29T01:31:51;9;7;
70249;PMS5003;57644;48.416;-123.374;2022-07-29T01:34:21;8;7;
70249;PMS5003;57644;48.416;-123.374;2022-07-29T01:36:51;5;5;
70249;PMS5003;57644;48.416;-123.374;2022-07-29T01:39:22;8;7;
70249;PMS5003;57644;48.416;-123.374;2022-07-29T01:41:53;9;9;
70249;PMS5003;57644;48.416;-123.374;2022-07-29T01:44:22;9;8;
70249;PMS5003;57644;48.416;-123.374;2022-07-29T01:46:56;11;11;
70249;PMS5003;57644;48.416;-123.374;2022-07-29T01:49:22;11;11;
70249;PMS5003;57644;48.416;-123.374;2022-07-29T01:51:52;8;8;
70249;PMS5003;57644;48.416;-123.374;2022-07-29T01:54:24;9;8;
70249;PMS5003;57644;48.416;-123.374;2022-07-29T01:56:53;8;8;
70249;PMS5003;57644;48.416;-123.374;2022-07-29T01:59:23;10;8;
70249;PMS5003;57644;48.416;-123.374;2022-07-29T02:01:53;7;7;
70249;PMS5003;57644;48.416;-123.374;2022-07-29T02:04:23;8;8;
70249;PMS5003;57644;48.416;-123.374;2022-07-29T02:06:54;10;10;
70249;PMS5003;57644;48.416;-123.374;2022-07-29T02:09:24;11;11;
70249;PMS5003;57644;48.416;-123.374;2022-07-29T02:11:56;11;11;
70249;PMS5003;57644;48.416;-123.374;2022-07-29T02:14:26;19;17;
70249;PMS5003;57644;48.416;-123.374;2022-07-29T02:16:56;40;40;
70249;PMS5003;57644;48.416;-123.374;2022-07-29T02:19:27;25;25;
70249;PMS5003;57644;48.416;-123.374;2022-07-29T02:21:57;16;16;
70249;PMS5003;57644;48.416;-123.374;2022-07-29T02:24:28;33;31;
70249;PMS5003;57644;48.416;-123.374;2022-07-29T02:27:02;22;21;
70249;PMS5003;57644;48.416;-123.374;2022-07-29T02:29:28;17;17;
70249;PMS5003;57644;48.416;-123.374;2022-07-29T02:31:59;9;9;
70249;PMS5003;57644;48.416;-123.374;2022-07-29T02:34:30;10;9;
70249;PMS5003;57644;48.416;-123.374;2022-07-29T02:37:00;8;7;
70249;PMS5003;57644;48.416;-123.374;2022-07-29T02:39:30;10;10;
70249;PMS5003;57644;48.416;-123.374;2022-07-29T02:42:01;17;12;
70249;PMS5003;57644;48.416;-123.374;2022-07-29T02:44:31;20;17;
70249;PMS5003;57644;48.416;-123.374;2022-07-29T02:47:03;16;16;
70249;PMS5003;57644;48.416;-123.374;2022-07-29T02:49:34;12;11;
70249;PMS5003;57644;48.416;-123.374;2022-07-29T02:52:03;10;10;
70249;PMS5003;57644;48.416;-123.374;2022-07-29T02:54:35;12;12;
70249;PMS5003;57644;48.416;-123.374;2022-07-29T02:57:04;13;10;
70249;PMS5003;57644;48.416;-123.374;2022-07-29T02:59:33;12;11;
70249;PMS5003;57644;48.416;-123.374;2022-07-29T03:02:03;11;11;
70249;PMS5003;57644;48.416;-123.374;2022-07-29T03:04:33;15;13;
70249;PMS5003;57644;48.416;-123.374;2022-07-29T03:07:03;12;12;
70249;PMS5003;57644;48.416;-123.374;2022-07-29T03:09:34;11;11;
70249;PMS5003;57644;48.416;-123.374;2022-07-29T03:12:04;10;10;
70249;PMS5003;57644;48.416;-123.374;2022-07-29T03:14:34;11;10;
70249;PMS5003;57644;48.416;-123.374;2022-07-29T03:17:04;18;17;
70249;PMS5003;57644;48.416;-123.374;2022-07-29T03:19:35;21;20;
70249;PMS5003;57644;48.416;-123.374;2022-07-29T03:22:06;23;23;
70249;PMS5003;57644;48.416;-123.374;2022-07-29T03:24:37;21;21;
70249;PMS5003;57644;48.416;-123.374;2022-07-29T03:27:08;16;15;
70249;PMS5003;57644;48.416;-123.374;2022-07-29T03:29:38;17;17;
70249;PMS5003;57644;48.416;-123.374;2022-07-29T03:32:08;15;13;
70249;PMS5003;57644;48.416;-123.374;2022-07-29T03:34:38;15;13;
70249;PMS5003;57644;48.416;-123.374;2022-07-29T03:37:09;13;11;
70249;PMS5003;57644;48.416;-123.374;2022-07-29T03:39:40;15;14;
70249;PMS5003;57644;48.416;-123.374;2022-07-29T03:42:10;16;15;
70249;PMS5003;57644;48.416;-123.374;2022-07-29T03:44:41;14;13;
70249;PMS5003;57644;48.416;-123.374;2022-07-29T03:47:10;13;12;
70249;PMS5003;57644;48.416;-123.374;2022-07-29T03:49:40;14;14;
70249;PMS5003;57644;48.416;-123.374;2022-07-29T03:52:11;11;10;
70249;PMS5003;57644;48.416;-123.374;2022-07-29T03:54:41;10;10;
70249;PMS5003;57644;48.416;-123.374;2022-07-29T03:57:11;14;14;
70249;PMS5003;57644;48.416;-123.374;2022-07-29T03:59:42;16;14;
70249;PMS5003;57644;48.416;-123.374;2022-07-29T04:02:12;21;19;
70249;PMS5003;57644;48.416;-123.374;2022-07-29T04:04:43;20;20;
70249;PMS5003;57644;48.416;-123.374;2022-07-29T04:07:14;29;24;
70249;PMS5003;57644;48.416;-123.374;2022-07-29T04:09:44;41;37;
70249;PMS5003;57644;48.416;-123.374;2022-07-29T04:12:14;20;18;
70249;PMS5003;57644;48.416;-123.374;2022-07-29T04:14:45;21;18;
70249;PMS5003;57644;48.416;-123.374;2022-07-29T04:17:16;15;15;
70249;PMS5003;57644;48.416;-123.374;2022-07-29T04:19:46;21;21;
70249;PMS5003;57644;48.416;-123.374;2022-07-29T04:22:17;17;17;
70249;PMS5003;57644;48.416;-123.374;2022-07-29T04:24:47;34;32;
70249;PMS5003;57644;48.416;-123.374;2022-07-29T04:27:18;30;26;
70249;PMS5003;57644;48.416;-123.374;2022-07-29T04:29:47;21;21;
70249;PMS5003;57644;48.416;-123.374;2022-07-29T04:32:18;14;13;
70249;PMS5003;57644;48.416;-123.374;2022-07-29T04:34:48;20;18;
70249;PMS5003;57644;48.416;-123.374;2022-07-29T04:37:23;21;19;
70249;PMS5003;57644;48.416;-123.374;2022-07-29T04:39:51;16;16;
70249;PMS5003;57644;48.416;-123.374;2022-07-29T04:42:19;21;18;
70249;PMS5003;57644;48.416;-123.374;2022-07-29T04:44:49;12;12;
70249;PMS5003;57644;48.416;-123.374;2022-07-29T04:47:21;17;17;
70249;PMS5003;57644;48.416;-123.374;2022-07-29T04:49:51;14;14;
70249;PMS5003;57644;48.416;-123.374;2022-07-29T04:52:22;14;14;
70249;PMS5003;57644;48.416;-123.374;2022-07-29T04:54:53;17;15;
70249;PMS5003;57644;48.416;-123.374;2022-07-29T04:57:23;16;15;
70249;PMS5003;57644;48.416;-123.374;2022-07-29T04:59:54;16;15;
70249;PMS5003;57644;48.416;-123.374;2022-07-29T05:02:24;16;15;
70249;PMS5003;57644;48.416;-123.374;2022-07-29T05:04:54;14;14;
70249;PMS5003;57644;48.416;-123.374;2022-07-29T05:07:25;12;12;
70249;PMS5003;57644;48.416;-123.374;2022-07-29T05:09:55;15;15;
70249;PMS5003;57644;48.416;-123.374;2022-07-29T05:12:25;16;16;
70249;PMS5003;57644;48.416;-123.374;2022-07-29T05:14:56;12;12;
70249;PMS5003;57644;48.416;-123.374;2022-07-29T05:17:27;15;13;
70249;PMS5003;57644;48.416;-123.374;2022-07-29T05:19:57;17;16;
70249;PMS5003;57644;48.416;-123.374;2022-07-29T05:22:27;15;14;
70249;PMS5003;57644;48.416;-123.374;2022-07-29T05:24:57;12;12;
70249;PMS5003;57644;48.416;-123.374;2022-07-29T05:27:28;14;13;
70249;PMS5003;57644;48.416;-123.374;2022-07-29T05:29:59;14;14;
70249;PMS5003;57644;48.416;-123.374;2022-07-29T05:32:29;14;14;
70249;PMS5003;57644;48.416;-123.374;2022-07-29T05:34:59;13;12;
70249;PMS5003;57644;48.416;-123.374;2022-07-29T05:37:30;13;12;
70249;PMS5003;57644;48.416;-123.374;2022-07-29T05:40:00;12;12;
70249;PMS5003;57644;48.416;-123.374;2022-07-29T05:42:30;12;12;
70249;PMS5003;57644;48.416;-123.374;2022-07-29T05:45:01;11;11;
70249;PMS5003;57644;48.416;-123.374;2022-07-29T05:47:31;11;11;
70249;PMS5003;57644;48.416;-123.374;2022-07-29T05:50:01;10;10;
70249;PMS5003;57644;48.416;-123.374;2022-07-29T05:52:31;12;12;
70249;PMS5003;57644;48.416;-123.374;2022-07-29T05:55:02;13;13;
70249;PMS5003;57644;48.416;-123.374;2022-07-29T05:57:32;10;10;
70249;PMS5003;57644;48.416;-123.374;2022-07-29T06:00:03;12;12;
70249;PMS5003;57644;48.416;-123.374;2022-07-29T06:02:33;8;8;
70249;PMS5003;57644;48.416;-123.374;2022-07-29T06:05:04;8;8;
70249;PMS5003;57644;48.416;-123.374;2022-07-29T06:07:34;9;9;
70249;PMS5003;57644;48.416;-123.374;2022-07-29T06:10:04;10;10;
70249;PMS5003;57644;48.416;-123.374;2022-07-29T06:12:35;11;11;
70249;PMS5003;57644;48.416;-123.374;2022-07-29T06:15:06;8;8;
70249;PMS5003;57644;48.416;-123.374;2022-07-29T06:17:36;9;8;
70249;PMS5003;57644;48.416;-123.374;2022-07-29T06:20:09;8;8;
70249;PMS5003;57644;48.416;-123.374;2022-07-29T06:22:36;9;8;
70249;PMS5003;57644;48.416;-123.374;2022-07-29T06:25:07;8;8;
70249;PMS5003;57644;48.416;-123.374;2022-07-29T06:27:37;8;8;
70249;PMS5003;57644;48.416;-123.374;2022-07-29T06:30:08;9;9;
70249;PMS5003;57644;48.416;-123.374;2022-07-29T06:32:38;9;9;
70249;PMS5003;57644;48.416;-123.374;2022-07-29T06:35:08;9;9;
70249;PMS5003;57644;48.416;-123.374;2022-07-29T06:37:38;9;9;
70249;PMS5003;57644;48.416;-123.374;2022-07-29T06:40:09;10;9;
70249;PMS5003;57644;48.416;-123.374;2022-07-29T06:42:41;8;8;
70249;PMS5003;57644;48.416;-123.374;2022-07-29T06:45:11;8;8;
70249;PMS5003;57644;48.416;-123.374;2022-07-29T06:47:41;8;8;
70249;PMS5003;57644;48.416;-123.374;2022-07-29T06:50:10;9;9;
70249;PMS5003;57644;48.416;-123.374;2022-07-29T06:52:41;8;8;
70249;PMS5003;57644;48.416;-123.374;2022-07-29T06:55:11;9;9;
70249;PMS5003;57644;48.416;-123.374;2022-07-29T06:57:41;8;8;
70249;PMS5003;57644;48.416;-123.374;2022-07-29T07:00:12;8;7;
70249;PMS5003;57644;48.416;-123.374;2022-07-29T07:02:42;9;9;
70249;PMS5003;57644;48.416;-123.374;2022-07-29T07:05:13;11;10;
70249;PMS5003;57644;48.416;-123.374;2022-07-29T07:07:43;7;7;
70249;PMS5003;57644;48.416;-123.374;2022-07-29T07:10:13;8;8;
70249;PMS5003;57644;48.416;-123.374;2022-07-29T07:12:44;9;7;
70249;PMS5003;57644;48.416;-123.374;2022-07-29T07:15:14;7;7;
70249;PMS5003;57644;48.416;-123.374;2022-07-29T07:17:44;8;8;
70249;PMS5003;57644;48.416;-123.374;2022-07-29T07:20:15;6;6;
70249;PMS5003;57644;48.416;-123.374;2022-07-29T07:22:45;5;5;
70249;PMS5003;57644;48.416;-123.374;2022-07-29T07:25:16;7;7;
70249;PMS5003;57644;48.416;-123.374;2022-07-29T07:27:46;8;8;
70249;PMS5003;57644;48.416;-123.374;2022-07-29T07:30:16;8;7;
70249;PMS5003;57644;48.416;-123.374;2022-07-29T07:32:47;10;9;
70249;PMS5003;57644;48.416;-123.374;2022-07-29T07:35:17;9;8;
70249;PMS5003;57644;48.416;-123.374;2022-07-29T07:37:47;7;7;
70249;PMS5003;57644;48.416;-123.374;2022-07-29T07:40:18;7;7;
70249;PMS5003;57644;48.416;-123.374;2022-07-29T07:42:48;6;6;
70249;PMS5003;57644;48.416;-123.374;2022-07-29T07:45:18;7;7;
70249;PMS5003;57644;48.416;-123.374;2022-07-29T07:47:49;8;7;
70249;PMS5003;57644;48.416;-123.374;2022-07-29T07:50:19;7;7;
70249;PMS5003;57644;48.416;-123.374;2022-07-29T07:52:50;6;6;
70249;PMS5003;57644;48.416;-123.374;2022-07-29T07:55:20;6;6;
70249;PMS5003;57644;48.416;-123.374;2022-07-29T07:57:50;6;5;
70249;PMS5003;57644;48.416;-123.374;2022-07-29T08:00:21;7;7;
70249;PMS5003;57644;48.416;-123.374;2022-07-29T08:02:51;7;6;
70249;PMS5003;57644;48.416;-123.374;2022-07-29T08:05:21;7;6;
70249;PMS5003;57644;48.416;-123.374;2022-07-29T08:07:52;8;7;
70249;PMS5003;57644;48.416;-123.374;2022-07-29T08:10:23;6;6;
70249;PMS5003;57644;48.416;-123.374;2022-07-29T08:12:53;11;7;
70249;PMS5003;57644;48.416;-123.374;2022-07-29T08:15:24;7;6;
70249;PMS5003;57644;48.416;-123.374;2022-07-29T08:17:53;6;5;
70249;PMS5003;57644;48.416;-123.374;2022-07-29T08:20:24;7;7;
70249;PMS5003;57644;48.416;-123.374;2022-07-29T08:22:54;8;7;
70249;PMS5003;57644;48.416;-123.374;2022-07-29T08:25:25;7;7;
70249;PMS5003;57644;48.416;-123.374;2022-07-29T08:27:55;7;7;
70249;PMS5003;57644;48.416;-123.374;2022-07-29T08:30:26;7;6;
70249;PMS5003;57644;48.416;-123.374;2022-07-29T08:32:56;6;6;
70249;PMS5003;57644;48.416;-123.374;2022-07-29T08:35:26;8;7;
70249;PMS5003;57644;48.416;-123.374;2022-07-29T08:37:57;6;6;
70249;PMS5003;57644;48.416;-123.374;2022-07-29T08:40:27;6;6;
70249;PMS5003;57644;48.416;-123.374;2022-07-29T08:42:58;7;6;
70249;PMS5003;57644;48.416;-123.374;2022-07-29T08:45:28;8;8;
70249;PMS5003;57644;48.416;-123.374;2022-07-29T08:47:59;7;7;
70249;PMS5003;57644;48.416;-123.374;2022-07-29T08:50:29;6;6;
70249;PMS5003;57644;48.416;-123.374;2022-07-29T08:53:00;9;9;
70249;PMS5003;57644;48.416;-123.374;2022-07-29T08:55:30;9;8;
70249;PMS5003;57644;48.416;-123.374;2022-07-29T08:58:01;8;7;
70249;PMS5003;57644;48.416;-123.374;2022-07-29T09:00:31;8;7;
70249;PMS5003;57644;48.416;-123.374;2022-07-29T09:03:02;9;8;
70249;PMS5003;57644;48.416;-123.374;2022-07-29T09:05:32;8;8;
70249;PMS5003;57644;48.416;-123.374;2022-07-29T09:08:03;8;7;
70249;PMS5003;57644;48.416;-123.374;2022-07-29T09:10:34;8;7;
70249;PMS5003;57644;48.416;-123.374;2022-07-29T09:13:03;7;7;
70249;PMS5003;57644;48.416;-123.374;2022-07-29T09:15:33;6;6;
70249;PMS5003;57644;48.416;-123.374;2022-07-29T09:18:04;7;6;
70249;PMS5003;57644;48.416;-123.374;2022-07-29T09:20:34;8;8;
70249;PMS5003;57644;48.416;-123.374;2022-07-29T09:23:07;10;8;
70249;PMS5003;57644;48.416;-123.374;2022-07-29T09:25:35;8;8;
70249;PMS5003;57644;48.416;-123.374;2022-07-29T09:28:06;6;6;
70249;PMS5003;57644;48.416;-123.374;2022-07-29T09:30:35;9;9;
70249;PMS5003;57644;48.416;-123.374;2022-07-29T09:33:06;9;8;
70249;PMS5003;57644;48.416;-123.374;2022-07-29T09:35:37;6;6;
70249;PMS5003;57644;48.416;-123.374;2022-07-29T09:38:10;8;7;
70249;PMS5003;57644;48.416;-123.374;2022-07-29T09:40:38;6;6;
70249;PMS5003;57644;48.416;-123.374;2022-07-29T09:43:11;9;7;
70249;PMS5003;57644;48.416;-123.374;2022-07-29T09:45:39;7;7;
70249;PMS5003;57644;48.416;-123.374;2022-07-29T09:50:40;6;6;
70249;PMS5003;57644;48.416;-123.374;2022-07-29T09:53:09;6;5;
70249;PMS5003;57644;48.416;-123.374;2022-07-29T10:00:42;4;4;
70249;PMS5003;57644;48.416;-123.374;2022-07-29T10:03:12;6;5;
70249;PMS5003;57644;48.416;-123.374;2022-07-29T10:05:42;7;6;
70249;PMS5003;57644;48.416;-123.374;2022-07-29T10:08:12;7;6;
70249;PMS5003;57644;48.416;-123.374;2022-07-29T10:10:42;5;4;
70249;PMS5003;57644;48.416;-123.374;2022-07-29T10:13:13;6;5;
70249;PMS5003;57644;48.416;-123.374;2022-07-29T10:15:44;5;5;
70249;PMS5003;57644;48.416;-123.374;2022-07-29T10:18:14;5;4;
70249;PMS5003;57644;48.416;-123.374;2022-07-29T10:20:44;4;4;
70249;PMS5003;57644;48.416;-123.374;2022-07-29T10:23:15;6;6;
70249;PMS5003;57644;48.416;-123.374;2022-07-29T10:25:45;4;3;
70249;PMS5003;57644;48.416;-123.374;2022-07-29T10:28:15;5;5;
70249;PMS5003;57644;48.416;-123.374;2022-07-29T10:30:46;4;4;
70249;PMS5003;57644;48.416;-123.374;2022-07-29T10:33:21;7;6;
70249;PMS5003;57644;48.416;-123.374;2022-07-29T10:35:53;4;4;
70249;PMS5003;57644;48.416;-123.374;2022-07-29T10:40:54;5;4;
70249;PMS5003;57644;48.416;-123.374;2022-07-29T10:43:19;4;3;
70249;PMS5003;57644;48.416;-123.374;2022-07-29T10:45:48;7;4;
70249;PMS5003;57644;48.416;-123.374;2022-07-29T10:48:18;4;4;
70249;PMS5003;57644;48.416;-123.374;2022-07-29T10:50:52;6;6;
70249;PMS5003;57644;48.416;-123.374;2022-07-29T10:53:19;8;8;
70249;PMS5003;57644;48.416;-123.374;2022-07-29T10:55:49;5;5;
70249;PMS5003;57644;48.416;-123.374;2022-07-29T10:58:20;5;4;
70249;PMS5003;57644;48.416;-123.374;2022-07-29T11:00:51;5;4;
70249;PMS5003;57644;48.416;-123.374;2022-07-29T11:05:53;5;5;
70249;PMS5003;57644;48.416;-123.374;2022-07-29T11:08:22;6;6;
70249;PMS5003;57644;48.416;-123.374;2022-07-29T11:10:52;6;5;
70249;PMS5003;57644;48.416;-123.374;2022-07-29T11:15:52;6;5;
70249;PMS5003;57644;48.416;-123.374;2022-07-29T11:18:23;6;6;
70249;PMS5003;57644;48.416;-123.374;2022-07-29T11:20:53;4;4;
70249;PMS5003;57644;48.416;-123.374;2022-07-29T11:23:24;5;5;
70249;PMS5003;57644;48.416;-123.374;2022-07-29T11:28:24;9;9;
70249;PMS5003;57644;48.416;-123.374;2022-07-29T11:30:55;5;4;
70249;PMS5003;57644;48.416;-123.374;2022-07-29T11:33:29;4;4;
70249;PMS5003;57644;48.416;-123.374;2022-07-29T11:38:26;5;5;
70249;PMS5003;57644;48.416;-123.374;2022-07-29T11:45:57;4;4;
70249;PMS5003;57644;48.416;-123.374;2022-07-29T11:48:27;3;3;
70249;PMS5003;57644;48.416;-123.374;2022-07-29T11:50:58;7;5;
70249;PMS5003;57644;48.416;-123.374;2022-07-29T11:53:28;4;4;
70249;PMS5003;57644;48.416;-123.374;2022-07-29T11:55:59;4;4;
70249;PMS5003;57644;48.416;-123.374;2022-07-29T11:58:29;7;4;
70249;PMS5003;57644;48.416;-123.374;2022-07-29T12:01:00;5;4;
70249;PMS5003;57644;48.416;-123.374;2022-07-29T12:03:29;5;4;
70249;PMS5003;57644;48.416;-123.374;2022-07-29T12:06:00;3;2;
70249;PMS5003;57644;48.416;-123.374;2022-07-29T12:08:30;4;4;
70249;PMS5003;57644;48.416;-123.374;2022-07-29T12:11:00;5;4;
70249;PMS5003;57644;48.416;-123.374;2022-07-29T12:13:31;2;2;
70249;PMS5003;57644;48.416;-123.374;2022-07-29T12:16:01;4;4;
70249;PMS5003;57644;48.416;-123.374;2022-07-29T12:18:31;5;5;
70249;PMS5003;57644;48.416;-123.374;2022-07-29T12:21:02;3;3;
70249;PMS5003;57644;48.416;-123.374;2022-07-29T12:23:32;3;3;
70249;PMS5003;57644;48.416;-123.374;2022-07-29T12:26:03;6;6;
70249;PMS5003;57644;48.416;-123.374;2022-07-29T12:28:36;2;2;
70249;PMS5003;57644;48.416;-123.374;2022-07-29T12:31:03;7;7;
70249;PMS5003;57644;48.416;-123.374;2022-07-29T12:33:34;4;4;
70249;PMS5003;57644;48.416;-123.374;2022-07-29T12:36:04;3;3;
70249;PMS5003;57644;48.416;-123.374;2022-07-29T12:38:35;4;4;
70249;PMS5003;57644;48.416;-123.374;2022-07-29T12:41:05;3;3;
70249;PMS5003;57644;48.416;-123.374;2022-07-29T12:43:35;4;4;
70249;PMS5003;57644;48.416;-123.374;2022-07-29T12:48:36;4;4;
70249;PMS5003;57644;48.416;-123.374;2022-07-29T12:51:07;4;4;
70249;PMS5003;57644;48.416;-123.374;2022-07-29T12:53:37;4;4;
70249;PMS5003;57644;48.416;-123.374;2022-07-29T12:56:14;7;7;
70249;PMS5003;57644;48.416;-123.374;2022-07-29T12:58:38;6;5;
70249;PMS5003;57644;48.416;-123.374;2022-07-29T13:01:08;4;3;
70249;PMS5003;57644;48.416;-123.374;2022-07-29T13:06:10;3;3;
70249;PMS5003;57644;48.416;-123.374;2022-07-29T13:08:38;4;4;
70249;PMS5003;57644;48.416;-123.374;2022-07-29T13:11:26;8;7;
70249;PMS5003;57644;48.416;-123.374;2022-07-29T13:16:10;6;5;
70249;PMS5003;57644;48.416;-123.374;2022-07-29T13:18:40;7;6;
70249;PMS5003;57644;48.416;-123.374;2022-07-29T13:21:11;4;4;
70249;PMS5003;57644;48.416;-123.374;2022-07-29T13:23:41;5;4;
70249;PMS5003;57644;48.416;-123.374;2022-07-29T13:26:11;6;6;
70249;PMS5003;57644;48.416;-123.374;2022-07-29T13:28:42;6;5;
70249;PMS5003;57644;48.416;-123.374;2022-07-29T13:31:12;7;6;
70249;PMS5003;57644;48.416;-123.374;2022-07-29T13:33:42;9;7;
70249;PMS5003;57644;48.416;-123.374;2022-07-29T13:36:12;7;7;
70249;PMS5003;57644;48.416;-123.374;2022-07-29T13:38:43;10;9;
70249;PMS5003;57644;48.416;-123.374;2022-07-29T13:41:13;7;7;
70249;PMS5003;57644;48.416;-123.374;2022-07-29T13:43:44;8;7;
70249;PMS5003;57644;48.416;-123.374;2022-07-29T13:46:14;7;6;
70249;PMS5003;57644;48.416;-123.374;2022-07-29T13:48:45;9;8;
70249;PMS5003;57644;48.416;-123.374;2022-07-29T13:51:14;6;6;
70249;PMS5003;57644;48.416;-123.374;2022-07-29T13:53:46;6;6;
70249;PMS5003;57644;48.416;-123.374;2022-07-29T13:56:15;7;6;
70249;PMS5003;57644;48.416;-123.374;2022-07-29T13:58:45;7;5;
70249;PMS5003;57644;48.416;-123.374;2022-07-29T14:01:16;8;7;
70249;PMS5003;57644;48.416;-123.374;2022-07-29T14:03:46;6;6;
70249;PMS5003;57644;48.416;-123.374;2022-07-29T14:06:17;4;4;
70249;PMS5003;57644;48.416;-123.374;2022-07-29T14:08:46;4;4;
70249;PMS5003;57644;48.416;-123.374;2022-07-29T14:11:17;5;4;
70249;PMS5003;57644;48.416;-123.374;2022-07-29T14:13:47;3;3;
70249;PMS5003;57644;48.416;-123.374;2022-07-29T14:16:18;3;2;
70249;PMS5003;57644;48.416;-123.374;2022-07-29T14:18:48;6;4;
70249;PMS5003;57644;48.416;-123.374;2022-07-29T14:21:18;6;6;
70249;PMS5003;57644;48.416;-123.374;2022-07-29T14:23:49;3;3;
70249;PMS5003;57644;48.416;-123.374;2022-07-29T14:26:21;3;3;
70249;PMS5003;57644;48.416;-123.374;2022-07-29T14:28:51;4;3;
70249;PMS5003;57644;48.416;-123.374;2022-07-29T14:31:20;2;2;
70249;PMS5003;57644;48.416;-123.374;2022-07-29T14:33:50;4;4;
70249;PMS5003;57644;48.416;-123.374;2022-07-29T14:36:20;1;1;
70249;PMS5003;57644;48.416;-123.374;2022-07-29T14:38:51;3;3;
70249;PMS5003;57644;48.416;-123.374;2022-07-29T14:41:21;4;4;
70249;PMS5003;57644;48.416;-123.374;2022-07-29T14:43:51;4;3;
70249;PMS5003;57644;48.416;-123.374;2022-07-29T14:46:22;6;4;
70249;PMS5003;57644;48.416;-123.374;2022-07-29T14:48:52;3;3;
70249;PMS5003;57644;48.416;-123.374;2022-07-29T14:51:22;4;4;
70249;PMS5003;57644;48.416;-123.374;2022-07-29T14:53:53;4;4;
70249;PMS5003;57644;48.416;-123.374;2022-07-29T14:56:23;3;3;
70249;PMS5003;57644;48.416;-123.374;2022-07-29T14:58:54;4;4;
70249;PMS5003;57644;48.416;-123.374;2022-07-29T15:01:24;3;2;
70249;PMS5003;57644;48.416;-123.374;2022-07-29T15:03:54;4;4;
70249;PMS5003;57644;48.416;-123.374;2022-07-29T15:06:24;4;3;
70249;PMS5003;57644;48.416;-123.374;2022-07-29T15:08:55;3;3;
70249;PMS5003;57644;48.416;-123.374;2022-07-29T15:11:25;4;4;
70249;PMS5003;57644;48.416;-123.374;2022-07-29T15:13:56;5;4;
70249;PMS5003;57644;48.416;-123.374;2022-07-29T15:16:26;4;4;
70249;PMS5003;57644;48.416;-123.374;2022-07-29T15:18:56;4;4;
70249;PMS5003;57644;48.416;-123.374;2022-07-29T15:21:26;4;4;
70249;PMS5003;57644;48.416;-123.374;2022-07-29T15:23:57;3;3;
70249;PMS5003;57644;48.416;-123.374;2022-07-29T15:26:27;2;2;
70249;PMS5003;57644;48.416;-123.374;2022-07-29T15:28:57;2;2;
70249;PMS5003;57644;48.416;-123.374;2022-07-29T15:31:28;2;1;
70249;PMS5003;57644;48.416;-123.374;2022-07-29T15:33:58;2;2;
70249;PMS5003;57644;48.416;-123.374;2022-07-29T15:36:28;3;2;
70249;PMS5003;57644;48.416;-123.374;2022-07-29T15:38:59;3;3;
70249;PMS5003;57644;48.416;-123.374;2022-07-29T15:41:29;2;2;
70249;PMS5003;57644;48.416;-123.374;2022-07-29T15:44:00;3;2;
70249;PMS5003;57644;48.416;-123.374;2022-07-29T15:46:30;2;2;
70249;PMS5003;57644;48.416;-123.374;2022-07-29T15:49:00;3;3;
70249;PMS5003;57644;48.416;-123.374;2022-07-29T15:51:30;3;3;
70249;PMS5003;57644;48.416;-123.374;2022-07-29T15:54:00;3;2;
70249;PMS5003;57644;48.416;-123.374;2022-07-29T15:56:31;2;2;
70249;PMS5003;57644;48.416;-123.374;2022-07-29T15:59:01;2;2;
70249;PMS5003;57644;48.416;-123.374;2022-07-29T16:01:31;3;2;
70249;PMS5003;57644;48.416;-123.374;2022-07-29T16:04:01;2;2;
70249;PMS5003;57644;48.416;-123.374;2022-07-29T16:06:32;4;2;
70249;PMS5003;57644;48.416;-123.374;2022-07-29T16:09:03;2;1;
70249;PMS5003;57644;48.416;-123.374;2022-07-29T16:11:32;2;2;
70249;PMS5003;57644;48.416;-123.374;2022-07-29T16:14:03;2;2;
70249;PMS5003;57644;48.416;-123.374;2022-07-29T16:16:33;2;2;
70249;PMS5003;57644;48.416;-123.374;2022-07-29T16:19:07;5;5;
70249;PMS5003;57644;48.416;-123.374;2022-07-29T16:21:34;2;1;
70249;PMS5003;57644;48.416;-123.374;2022-07-29T16:24:05;3;3;
70249;PMS5003;57644;48.416;-123.374;2022-07-29T16:26:34;5;3;
70249;PMS5003;57644;48.416;-123.374;2022-07-29T16:29:04;3;2;
70249;PMS5003;57644;48.416;-123.374;2022-07-29T16:31:35;2;1;
70249;PMS5003;57644;48.416;-123.374;2022-07-29T16:34:05;3;3;
70249;PMS5003;57644;48.416;-123.374;2022-07-29T16:36:35;2;2;
70249;PMS5003;57644;48.416;-123.374;2022-07-29T16:39:05;2;1;
70249;PMS5003;57644;48.416;-123.374;2022-07-29T16:41:36;2;2;
70249;PMS5003;57644;48.416;-123.374;2022-07-29T16:44:06;4;3;